Arlington, WA

6:30 AM PDT on October 31, 2014 (GMT -0700)
Snohomish County | Change Station
CLOSE
Current Station
Airport
Location: Everett,
Elevation: 604 ft
Nearby Weather Stations

Elev 604 ft 47.91 °N, 122.28 °W | Updated 14 minutes ago

Rain
Rain
50 °F
Feels Like 50 °F
N
7
Wind Variable Wind from WNW

Today
High -- | Low -- °F
--% Chance of Precip.
Yesterday
High -- | Low -- °F
Precip. -- in
7:51 AM 5:50 PM
First Quarter, 55% visible
Pressure 29.69 in
Visibility 2.5 miles
Clouds Mostly Cloudy 200 ft
Mostly Cloudy 1000 ft
Overcast 4300 ft
Dew Point 48 °F
Humidity 93%
Rainfall 0.26 in
Snow Depth Not available.
UV 0 out of 12
Pollen .30 out of 12
Air Quality Not available.
Flu Activity Not available.
SPECI KPAE 311316Z AUTO 29006KT 2 1/2SM R16R/3500VP6000FT -RA BR BKN002 BKN010 OVC043 10/09 A2969 RMK AO2 P0001 T01000089

More Conditions Fewer Conditions

Pressure 29.69 in
Visibility 2.5 miles
Clouds Mostly Cloudy 200 ft
Mostly Cloudy 1000 ft
Overcast 4300 ft
Dew Point 48 °F
Humidity 93%
Rainfall 0.26 in
Snow Depth Not available.
UV 0 out of 12
Pollen .30 out of 12
Air Quality Not available.
Flu Activity Not available.
SPECI KPAE 311316Z AUTO 29006KT 2 1/2SM R16R/3500VP6000FT -RA BR BKN002 BKN010 OVC043 10/09 A2969 RMK AO2 P0001 T01000089

More Conditions Fewer Conditions

10-Day Weather Forecast

Almanac

Astronomy

Oct. 31, 2014 Rise Set
Actual Time
Civil Twilight
Nautical Twilight
Astronomical Twilight
Moon
Length of Visible Light
Length of Day
Tomorrow will be .
, % of the Moon is Illuminated

Today's Extremes

State Highs State Lows

Community

WunderPhotos

Upload Photos

1,766,610 photos uploaded!

WunderBlogs® & News

Nearby

Air Quality

  Air Quality AQ Index Pollutant
Not available.

Snow Depth

Station Depth Elevation

Earthquake Activity

City Distance Mag. Time & Date
Minimum magnitude displayed is 2.5.

Coastal Water Temperatures

Place Temperature

Nearby Weather Stations